CST,Max TemperatureF,Mean TemperatureF,Min TemperatureF,Max Dew PointF,MeanDew PointF,Min DewpointF,Max Humidity, Mean Humidity, Min Humidity, Max Sea Level PressureIn, Mean Sea Level PressureIn, Min Sea Level PressureIn, Max VisibilityMiles, Mean VisibilityMiles, Min VisibilityMiles, Max Wind SpeedMPH, Mean Wind SpeedMPH, Max Gust SpeedMPH,PrecipitationIn, CloudCover, Events, WindDirDegrees
2012-1-1,41,35,29,36,28,18,91,76,62,30.10,29.80,29.50,10,10,5,32,19,45,0.10,7,Rain,262
2012-1-2,23,21,18,15,8,3,70,60,46,30.40,30.24,30.12,10,10,5,29,21,39,0.00,8,Snow,300
2012-1-3,27,18,8,12,7,3,85,66,46,30.45,30.33,30.07,10,10,10,17,7,21,0.00,0,,205
2012-1-4,39,30,21,25,19,13,76,63,49,30.08,29.98,29.92,10,10,10,16,8,21,0.00,0,,244
2012-1-5,49,36,23,34,27,19,86,74,53,30.01,29.90,29.75,10,10,10,15,8,18,0.00,0,,205
2012-1-6,52,42,32,33,31,29,86,66,43,29.79,29.72,29.69,10,10,10,13,8,17,0.00,0,,244
2012-1-7,40,34,29,29,27,25,85,73,59,30.18,30.02,29.86,10,10,10,13,8,17,0.00,0,,264
2012-1-8,39,28,16,28,22,14,93,81,55,30.36,30.31,30.26,10,10,4,8,1,,0.00,0,,194
2012-1-9,44,34,24,30,26,22,90,76,53,30.26,30.09,29.95,10,9,7,23,10,30,0.00,0,,210
2012-1-10,49,36,23,31,26,20,90,72,46,30.05,29.97,29.87,10,10,10,14,5,18,0.00,0,,192
2012-1-11,52,36,21,32,26,19,89,65,31,29.76,29.65,29.56,10,10,7,10,4,,0.00,0,,183
2012-1-12,36,26,16,32,18,13,87,85,80,29.58,29.54,29.47,10,4,1,22,13,26,0.00,8,Snow,292
2012-1-13,18,15,12,11,10,7,82,76,71,30.01,29.84,29.66,10,9,3,17,14,24,0.00,8,Snow,276
2012-1-14,16,8,0,8,4,-5,84,75,63,30.19,30.10,30.03,10,10,7,8,3,,0.00,5,Snow,240
2012-1-15,32,23,14,26,18,10,85,81,75,30.27,30.20,30.02,10,10,7,23,10,29,0.00,3,,138
2012-1-16,38,34,29,34,30,25,89,84,80,29.92,29.78,29.70,10,10,10,21,14,26,0.00,3,,167
2012-1-17,34,26,16,31,24,11,91,86,76,30.15,29.83,29.65,10,4,1,21,12,30,0.00,8,Snow,317
2012-1-18,21,10,0,15,4,-4,85,77,69,30.29,30.17,29.91,10,10,10,18,7,23,0.00,1,,183
2012-1-19,23,12,1,19,-2,-14,85,60,45,30.16,29.99,29.77,10,10,5,18,13,25,0.00,3,,282
2012-1-20,9,3,-3,5,-5,-14,84,68,51,30.22,30.15,30.08,10,6,0,14,5,,0.00,6,Snow,33
2012-1-21,16,10,5,7,1,-3,79,70,60,30.26,30.21,30.15,10,10,10,14,6,17,0.00,7,,3
2012-1-22,32,23,14,30,21,9,93,89,80,30.03,29.82,29.64,10,4,1,20,15,25,0.02,7,,122
2012-1-23,38,32,27,37,30,21,96,88,75,29.81,29.48,29.31,10,5,0,28,12,33,0.06,8,Fog-Rain-Snow-Thunderstorm,224
2012-1-24,32,28,22,23,21,18,86,79,69,30.31,30.15,29.93,10,10,10,15,11,21,0.00,4,,254
2012-1-25,32,22,13,28,19,11,90,86,79,30.35,30.27,30.12,10,5,2,9,3,,0.00,2,,112
2012-1-26,32,30,29,32,30,27,100,93,92,30.03,29.85,29.71,4,1,0,12,5,,0.00,8,Fog,176
2012-1-27,34,28,22,28,24,19,87,82,71,29.97,29.88,29.70,10,10,7,12,8,18,0.00,3,Snow,246
2012-1-28,32,26,20,30,18,13,92,71,50,30.09,29.99,29.83,10,10,2,21,15,29,0.00,2,Snow,245
2012-1-29,30,24,17,27,17,9,90,72,52,30.23,30.09,29.94,10,10,1,23,10,31,0.00,4,Snow,252
2012-1-30,44,32,21,36,26,14,84,77,63,30.18,29.92,29.79,10,10,10,23,10,29,0.00,4,,150
2012-1-31,52,46,39,48,41,35,90,84,76,29.82,29.79,29.75,10,10,5,23,17,31,0.00,2,,194